Time;durP1;ratioP1;P1;durP2;ratioP2;P2;SDS_P1;SDS_P2;PMS_P1;PMS_P2;Temp;Humidity;BMP_temperature;BMP_pressure;BME280_temperature;BME280_humidity;BME280_pressure;Samples;Min_cycle;Max_cycle;Signal;HPM_P1;HPM_P2
2022/10/17 00:00:15;;;;;;;1.40;1.23;;;22.60;99.90;;;;;;5033628;28;20463;-40
2022/10/17 00:02:42;;;;;;;2.07;1.10;;;22.60;99.90;;;;;;5035286;28;20475;-40
2022/10/17 00:05:10;;;;;;;1.80;1.63;;;22.60;99.90;;;;;;5046521;28;20827;-41
2022/10/17 00:07:37;;;;;;;1.77;1.30;;;22.50;99.90;;;;;;5048575;28;20454;-39
2022/10/17 00:10:06;;;;;;;1.77;1.30;;;22.50;99.90;;;;;;5037047;28;20852;-40
2022/10/17 00:12:33;;;;;;;1.93;1.40;;;22.50;99.90;;;;;;5033561;28;20981;-40
2022/10/17 00:15:00;;;;;;;2.90;1.80;;;22.50;99.90;;;;;;5038259;28;20965;-40
2022/10/17 00:17:26;;;;;;;1.60;1.43;;;22.50;99.90;;;;;;5043812;28;20485;-41
2022/10/17 00:19:53;;;;;;;1.83;1.40;;;22.50;99.90;;;;;;5048657;28;20728;-40
2022/10/17 00:22:20;;;;;;;1.70;1.37;;;22.40;99.90;;;;;;5043339;28;20474;-40
2022/10/17 00:24:47;;;;;;;2.00;1.40;;;22.40;99.90;;;;;;5047567;28;20492;-40
2022/10/17 00:27:15;;;;;;;2.80;1.50;;;22.40;99.90;;;;;;5045655;28;20475;-40
2022/10/17 00:29:41;;;;;;;1.60;1.23;;;22.40;99.90;;;;;;5050981;28;20473;-40
2022/10/17 00:32:08;;;;;;;1.93;1.63;;;22.40;99.90;;;;;;5036998;28;20461;-41
2022/10/17 00:34:35;;;;;;;1.57;1.20;;;22.30;99.90;;;;;;5033435;28;20489;-40
2022/10/17 00:37:01;;;;;;;2.47;1.70;;;22.30;99.90;;;;;;5034435;28;20454;-40
2022/10/17 00:39:28;;;;;;;1.83;1.40;;;22.40;99.90;;;;;;5040297;28;20465;-40
2022/10/17 00:41:55;;;;;;;1.23;1.13;;;22.30;99.90;;;;;;5036985;28;21139;-40
2022/10/17 00:45:10;;;;;;;1.83;1.30;;;22.30;99.90;;;;;;5037395;28;20821;-41
2022/10/17 00:47:39;;;;;;;1.30;1.20;;;22.20;99.90;;;;;;4976374;28;20460;-41
2022/10/17 00:50:07;;;;;;;3.03;1.53;;;22.20;99.90;;;;;;5019567;28;20478;-41
2022/10/17 00:52:34;;;;;;;2.30;1.50;;;22.30;99.90;;;;;;5033349;28;21341;-40
2022/10/17 00:55:06;;;;;;;2.57;1.57;;;22.20;99.90;;;;;;5038862;28;20509;-41
2022/10/17 00:57:32;;;;;;;1.73;1.00;;;22.20;99.90;;;;;;5041046;28;20504;-41
2022/10/17 01:00:02;;;;;;;2.43;1.73;;;22.20;99.90;;;;;;5041474;28;20466;-40
2022/10/17 01:02:29;;;;;;;1.73;1.53;;;22.10;99.90;;;;;;5043890;28;20455;-40
2022/10/17 01:04:58;;;;;;;1.60;1.50;;;22.10;99.90;;;;;;5038923;28;20454;-41
2022/10/17 01:07:25;;;;;;;2.97;1.77;;;22.10;99.90;;;;;;5037415;28;20450;-41
2022/10/17 01:09:52;;;;;;;1.93;1.27;;;22.10;99.90;;;;;;5044941;28;20482;-41
2022/10/17 01:12:21;;;;;;;2.23;1.23;;;22.10;99.90;;;;;;5031556;28;20534;-40
2022/10/17 01:15:00;;;;;;;1.50;1.20;;;22.10;99.90;;;;;;5042127;28;20959;-40
2022/10/17 01:17:35;;;;;;;1.63;1.33;;;22.00;99.90;;;;;;5040735;28;21010;-40
2022/10/17 01:20:48;;;;;;;1.53;1.20;;;22.00;99.90;;;;;;5031699;28;20462;-40
2022/10/17 01:23:36;;;;;;;3.70;1.53;;;22.00;99.90;;;;;;5033913;28;20465;-40
2022/10/17 01:26:13;;;;;;;1.23;1.13;;;22.00;99.90;;;;;;5036806;28;20450;-41
2022/10/17 01:29:18;;;;;;;1.50;1.10;;;22.00;99.90;;;;;;5035117;28;20438;-40
2022/10/17 01:31:48;;;;;;;1.70;1.33;;;21.90;99.90;;;;;;5000581;28;21033;-40
2022/10/17 01:34:20;;;;;;;1.87;1.20;;;22.00;99.90;;;;;;5040622;28;20460;-40
2022/10/17 01:36:51;;;;;;;1.87;1.20;;;21.90;99.90;;;;;;5044796;28;20812;-41
2022/10/17 01:39:25;;;;;;;2.70;1.33;;;21.90;99.90;;;;;;5045895;28;20465;-41
2022/10/17 01:41:57;;;;;;;1.30;1.10;;;21.90;99.90;;;;;;5040768;28;20987;-40
2022/10/17 01:44:33;;;;;;;2.80;1.73;;;21.90;99.90;;;;;;5040375;28;20834;-40
2022/10/17 01:47:05;;;;;;;2.00;1.17;;;21.80;99.90;;;;;;5037761;28;20458;-40
2022/10/17 01:49:33;;;;;;;1.50;1.40;;;21.80;99.90;;;;;;5036784;28;20864;-40
2022/10/17 01:52:06;;;;;;;1.93;1.27;;;21.80;99.90;;;;;;5038293;28;20459;-40
2022/10/17 01:54:39;;;;;;;2.00;1.33;;;21.80;99.90;;;;;;5042761;28;20983;-40
2022/10/17 01:57:11;;;;;;;1.80;1.50;;;21.80;99.90;;;;;;5031174;28;20817;-41
2022/10/17 01:59:40;;;;;;;1.50;1.17;;;21.70;99.90;;;;;;5036936;28;20505;-40
2022/10/17 02:02:10;;;;;;;1.20;1.10;;;21.70;99.90;;;;;;5042739;28;20464;-40
2022/10/17 02:04:37;;;;;;;1.10;1.00;;;21.70;99.90;;;;;;5033438;28;20453;-40
2022/10/17 02:07:08;;;;;;;1.77;1.47;;;21.70;99.90;;;;;;5037964;28;20485;-41
2022/10/17 02:09:35;;;;;;;2.03;1.83;;;21.70;99.90;;;;;;5041716;28;21059;-40
2022/10/17 02:12:18;;;;;;;1.53;1.30;;;21.70;99.90;;;;;;5036056;28;20508;-40
2022/10/17 02:14:58;;;;;;;1.40;1.27;;;21.60;99.90;;;;;;5035549;28;20470;-40
2022/10/17 02:17:37;;;;;;;1.57;1.40;;;21.60;99.90;;;;;;5036115;28;20226;-40
2022/10/17 02:20:14;;;;;;;1.80;1.30;;;21.60;99.90;;;;;;5038996;28;20501;-40
2022/10/17 02:22:47;;;;;;;1.40;1.27;;;21.60;99.90;;;;;;5039989;28;20465;-40
2022/10/17 02:25:23;;;;;;;2.67;1.57;;;21.60;99.90;;;;;;5042560;28;20673;-40
2022/10/17 02:27:54;;;;;;;1.20;1.10;;;21.60;99.90;;;;;;5040916;28;20451;-40
2022/10/17 02:30:30;;;;;;;1.60;1.27;;;21.60;99.90;;;;;;5040506;28;20247;-40
2022/10/17 02:33:02;;;;;;;2.43;1.30;;;21.50;99.90;;;;;;5035979;28;20825;-40
2022/10/17 02:35:35;;;;;;;1.50;1.40;;;21.50;99.90;;;;;;5040775;28;20458;-40
2022/10/17 02:38:04;;;;;;;1.07;0.97;;;21.50;99.90;;;;;;5034816;28;20458;-39
2022/10/17 02:40:32;;;;;;;1.90;1.40;;;21.50;99.90;;;;;;5044468;28;20473;-41
2022/10/17 02:42:59;;;;;;;1.10;1.00;;;21.40;99.90;;;;;;5040857;28;20457;-41
2022/10/17 02:45:28;;;;;;;1.30;1.00;;;21.40;99.90;;;;;;5042009;28;20569;-41
2022/10/17 02:48:02;;;;;;;2.17;1.38;;;21.40;99.90;;;;;;5039953;28;20473;-40
2022/10/17 02:50:37;;;;;;;1.85;1.60;;;21.40;99.90;;;;;;5040553;28;20582;-41
2022/10/17 02:53:09;;;;;;;1.60;1.17;;;21.40;99.90;;;;;;5040210;28;20257;-41
2022/10/17 02:55:41;;;;;;;1.47;1.23;;;21.40;99.90;;;;;;5049378;28;20449;-40
2022/10/17 02:58:11;;;;;;;1.40;1.25;;;21.40;99.90;;;;;;5047568;28;20438;-41
2022/10/17 03:00:39;;;;;;;1.90;1.80;;;21.40;99.90;;;;;;5045748;28;20200;-40
2022/10/17 03:03:20;;;;;;;1.67;1.20;;;21.40;99.90;;;;;;5042894;28;20198;-40
2022/10/17 03:05:46;;;;;;;2.50;1.33;;;21.30;99.90;;;;;;5038644;28;20461;-39
2022/10/17 03:08:13;;;;;;;2.00;1.20;;;21.30;99.90;;;;;;5045123;28;20895;-39
2022/10/17 03:10:40;;;;;;;3.05;1.02;;;21.30;99.90;;;;;;5042839;28;20272;-40
2022/10/17 03:13:06;;;;;;;1.45;1.25;;;21.30;99.90;;;;;;5042480;28;20211;-40
2022/10/17 03:15:33;;;;;;;1.80;1.30;;;21.30;99.90;;;;;;5042346;28;20665;-40
2022/10/17 03:18:00;;;;;;;1.90;1.00;;;21.30;99.90;;;;;;5038827;28;22591;-40
2022/10/17 03:20:28;;;;;;;2.40;1.17;;;21.20;99.90;;;;;;5043508;28;20212;-40
2022/10/17 03:22:55;;;;;;;1.52;1.08;;;21.20;99.90;;;;;;5041038;28;20254;-40
2022/10/17 03:25:21;;;;;;;1.58;1.30;;;21.20;99.90;;;;;;5042965;28;20199;-41
2022/10/17 03:27:48;;;;;;;1.42;1.00;;;21.20;99.90;;;;;;5042233;28;20252;-40
2022/10/17 03:30:15;;;;;;;1.40;1.10;;;21.20;99.90;;;;;;5034802;28;20215;-42
2022/10/17 03:32:41;;;;;;;1.42;1.33;;;21.10;99.90;;;;;;5036640;28;20192;-40
2022/10/17 03:35:08;;;;;;;1.33;1.23;;;21.20;99.90;;;;;;5041504;28;20195;-40
2022/10/17 03:37:36;;;;;;;2.13;1.27;;;21.10;99.90;;;;;;5036589;28;20601;-41
2022/10/17 03:40:04;;;;;;;1.20;1.00;;;21.10;99.90;;;;;;5041031;28;20203;-40
2022/10/17 03:42:31;;;;;;;1.83;1.60;;;21.10;99.90;;;;;;5038801;28;20211;-40
2022/10/17 03:44:58;;;;;;;1.30;1.20;;;21.10;99.90;;;;;;5037496;28;20192;-40
2022/10/17 03:47:25;;;;;;;1.15;0.85;;;21.00;99.90;;;;;;5036674;28;20677;-40
2022/10/17 03:49:52;;;;;;;1.35;1.10;;;21.10;99.90;;;;;;5038348;28;20249;-40
2022/10/17 03:52:19;;;;;;;1.42;1.10;;;21.10;99.90;;;;;;5037679;28;20287;-40
2022/10/17 03:54:47;;;;;;;1.30;1.10;;;21.00;99.90;;;;;;5041537;28;20195;-41
2022/10/17 03:57:13;;;;;;;1.73;1.30;;;21.00;99.90;;;;;;5039006;28;20200;-41
2022/10/17 03:59:40;;;;;;;1.20;1.10;;;21.00;99.90;;;;;;5046255;28;20650;-42
2022/10/17 04:02:07;;;;;;;1.30;1.08;;;21.00;99.90;;;;;;5043249;28;20476;-41
2022/10/17 04:04:33;;;;;;;2.03;1.30;;;21.00;99.90;;;;;;5039405;28;20191;-40
2022/10/17 04:07:00;;;;;;;1.30;1.13;;;21.10;99.90;;;;;;5039426;28;20203;-41
2022/10/17 04:09:27;;;;;;;1.67;1.50;;;21.40;99.90;;;;;;5045349;28;20219;-40
2022/10/17 04:11:55;;;;;;;1.20;1.00;;;21.60;99.90;;;;;;5038417;28;20191;-41
2022/10/17 04:14:21;;;;;;;1.57;1.00;;;21.70;99.90;;;;;;5041245;28;21005;-40
2022/10/17 04:16:48;;;;;;;1.40;1.17;;;22.00;99.90;;;;;;5041118;28;20603;-41
2022/10/17 04:19:15;;;;;;;2.37;1.30;;;22.10;99.90;;;;;;5045776;28;20458;-41
2022/10/17 04:21:42;;;;;;;1.90;1.10;;;22.10;99.90;;;;;;5044947;28;20457;-40
2022/10/17 04:24:11;;;;;;;1.03;0.93;;;22.20;99.90;;;;;;5042020;28;20826;-40
2022/10/17 04:26:37;;;;;;;1.40;1.10;;;22.30;99.90;;;;;;5038010;28;20458;-41
2022/10/17 04:29:06;;;;;;;3.93;1.30;;;22.30;99.90;;;;;;5041129;28;20848;-40
2022/10/17 04:31:32;;;;;;;1.20;1.00;;;22.30;99.90;;;;;;5034808;28;20501;-40
2022/10/17 04:33:59;;;;;;;1.60;1.40;;;22.40;99.90;;;;;;5040893;28;20453;-41
2022/10/17 04:36:26;;;;;;;1.20;1.00;;;22.50;99.90;;;;;;5039259;28;20471;-41
2022/10/17 04:38:52;;;;;;;1.40;1.00;;;22.50;99.90;;;;;;5039163;28;20458;-40
2022/10/17 04:41:20;;;;;;;2.53;1.20;;;22.50;99.90;;;;;;5038060;28;20497;-40
2022/10/17 04:43:46;;;;;;;1.27;1.10;;;22.40;99.90;;;;;;5044838;28;20454;-41
2022/10/17 04:46:15;;;;;;;1.33;1.20;;;22.40;99.90;;;;;;5037877;28;20458;-41
2022/10/17 04:48:42;;;;;;;1.03;0.80;;;22.40;99.90;;;;;;5033814;28;20477;-40
2022/10/17 04:51:12;;;;;;;1.10;0.90;;;22.30;99.90;;;;;;5042203;28;20473;-41
2022/10/17 04:53:39;;;;;;;1.20;0.97;;;22.30;99.90;;;;;;5045553;28;20896;-40
2022/10/17 04:56:11;;;;;;;1.40;1.30;;;22.30;99.90;;;;;;5042049;28;20454;-40
2022/10/17 04:58:38;;;;;;;1.40;1.30;;;22.20;99.90;;;;;;5049229;28;20453;-41
2022/10/17 05:01:06;;;;;;;1.60;1.50;;;22.20;99.90;;;;;;5041558;28;20474;-40
2022/10/17 05:03:35;;;;;;;2.23;1.20;;;22.20;99.90;;;;;;5039452;28;20793;-40
2022/10/17 05:06:05;;;;;;;1.00;0.80;;;22.20;99.90;;;;;;5030327;28;20817;-40
2022/10/17 05:08:32;;;;;;;1.20;0.90;;;22.20;99.90;;;;;;5031805;28;20795;-40
2022/10/17 05:10:58;;;;;;;1.30;0.80;;;22.20;99.90;;;;;;5042596;28;20485;-41
2022/10/17 05:13:25;;;;;;;1.10;0.90;;;22.20;99.90;;;;;;5040952;28;20496;-41
2022/10/17 05:15:52;;;;;;;1.17;0.90;;;22.10;99.90;;;;;;5036342;28;20459;-41
2022/10/17 05:18:19;;;;;;;1.20;0.90;;;22.10;99.90;;;;;;5038029;28;20466;-41
2022/10/17 05:20:47;;;;;;;1.10;0.90;;;22.10;99.90;;;;;;5034708;28;20536;-41
2022/10/17 05:23:13;;;;;;;1.17;1.03;;;22.10;99.90;;;;;;5041618;28;20466;-41
2022/10/17 05:25:40;;;;;;;1.97;1.30;;;22.10;99.90;;;;;;5042074;28;20462;-41
2022/10/17 05:28:07;;;;;;;1.20;0.97;;;22.10;99.90;;;;;;5036895;28;20814;-40
2022/10/17 05:30:35;;;;;;;1.10;1.00;;;22.10;99.90;;;;;;5037013;28;20480;-40
2022/10/17 05:33:02;;;;;;;1.07;0.90;;;22.10;99.90;;;;;;5034742;28;20490;-40
2022/10/17 05:35:29;;;;;;;1.30;1.20;;;22.10;99.90;;;;;;5041079;28;20986;-40
2022/10/17 05:37:58;;;;;;;1.23;1.00;;;22.10;99.90;;;;;;5039449;28;20457;-40
2022/10/17 05:40:25;;;;;;;1.23;0.90;;;22.10;99.90;;;;;;5037245;28;20458;-40
2022/10/17 05:42:52;;;;;;;1.20;1.00;;;22.10;99.90;;;;;;5030794;28;20458;-40
2022/10/17 05:45:19;;;;;;;1.10;0.90;;;22.10;99.90;;;;;;5035293;28;20464;-40
2022/10/17 05:47:46;;;;;;;1.33;0.90;;;22.10;99.90;;;;;;5040025;28;20838;-39
2022/10/17 05:50:12;;;;;;;1.10;1.00;;;22.00;99.90;;;;;;5030618;28;20458;-39
2022/10/17 05:52:39;;;;;;;1.07;0.90;;;22.00;99.90;;;;;;5038265;28;21015;-39
2022/10/17 05:55:08;;;;;;;1.00;0.90;;;22.00;99.90;;;;;;5038605;28;20457;-39
2022/10/17 05:57:35;;;;;;;1.07;0.90;;;22.00;99.90;;;;;;5032660;28;20519;-39
2022/10/17 06:00:02;;;;;;;1.00;0.80;;;22.10;99.90;;;;;;5033399;28;20467;-40
2022/10/17 06:02:29;;;;;;;1.33;1.10;;;22.10;99.90;;;;;;5036083;28;20565;-40
2022/10/17 06:04:55;;;;;;;1.30;1.10;;;22.20;99.90;;;;;;5034859;28;20458;-37
2022/10/17 06:07:22;;;;;;;1.60;1.20;;;22.30;99.90;;;;;;5041649;28;20858;-39
2022/10/17 06:09:49;;;;;;;1.10;1.00;;;22.40;99.90;;;;;;5041891;28;20926;-40
2022/10/17 06:12:17;;;;;;;1.40;1.10;;;22.50;99.90;;;;;;5038666;28;20873;-40
2022/10/17 06:14:44;;;;;;;1.20;1.00;;;22.50;99.90;;;;;;5042140;28;20511;-40
2022/10/17 06:17:10;;;;;;;1.33;1.13;;;22.50;99.90;;;;;;5044979;28;22188;-39
2022/10/17 06:19:37;;;;;;;1.10;0.80;;;22.60;99.90;;;;;;5042440;28;20511;-38
2022/10/17 06:22:04;;;;;;;1.43;1.30;;;22.70;99.90;;;;;;5040205;28;20520;-40
2022/10/17 06:24:30;;;;;;;1.13;0.90;;;22.80;99.90;;;;;;5039025;28;20481;-40
2022/10/17 06:26:57;;;;;;;1.10;0.90;;;22.80;99.90;;;;;;5042181;28;20465;-39
2022/10/17 06:29:25;;;;;;;0.90;0.80;;;22.90;99.90;;;;;;5043385;28;20460;-40
2022/10/17 06:31:52;;;;;;;1.10;0.80;;;22.80;99.90;;;;;;5038139;28;20478;-40
2022/10/17 06:34:19;;;;;;;1.10;0.90;;;22.90;99.90;;;;;;5047752;28;21042;-40
2022/10/17 06:36:46;;;;;;;1.10;0.90;;;22.80;99.90;;;;;;5047415;28;20450;-39
2022/10/17 06:39:13;;;;;;;1.10;0.90;;;22.80;99.90;;;;;;5049151;28;20457;-40
2022/10/17 06:41:42;;;;;;;1.20;1.10;;;22.70;99.90;;;;;;5045806;28;21055;-40
2022/10/17 06:44:10;;;;;;;2.33;1.20;;;22.80;99.90;;;;;;5042055;28;20812;-39
2022/10/17 06:46:38;;;;;;;1.33;1.23;;;22.70;99.90;;;;;;5041444;28;20867;-38
2022/10/17 06:49:06;;;;;;;2.20;1.20;;;22.70;99.90;;;;;;5036577;28;20443;-40
2022/10/17 06:51:35;;;;;;;2.23;0.87;;;22.70;99.90;;;;;;5042276;28;20836;-40
2022/10/17 06:54:03;;;;;;;4.10;1.10;;;22.70;99.90;;;;;;5038998;28;20816;-40
2022/10/17 06:56:29;;;;;;;1.30;0.90;;;22.60;99.90;;;;;;5041159;28;20472;-40
2022/10/17 06:58:56;;;;;;;1.20;0.90;;;22.60;99.90;;;;;;5041595;28;20453;-38
2022/10/17 07:01:23;;;;;;;1.37;1.07;;;22.60;99.90;;;;;;5044253;28;20474;-40
2022/10/17 07:03:51;;;;;;;2.43;1.23;;;22.60;99.90;;;;;;5044141;28;20832;-39
2022/10/17 07:06:18;;;;;;;2.80;1.30;;;22.60;99.90;;;;;;5043333;28;20465;-39
2022/10/17 07:08:45;;;;;;;1.53;1.43;;;22.60;99.90;;;;;;5038046;28;20524;-39
2022/10/17 07:11:14;;;;;;;1.93;1.33;;;22.60;99.90;;;;;;5037757;28;20865;-39
2022/10/17 07:13:41;;;;;;;2.83;1.20;;;22.60;99.90;;;;;;5042447;28;20462;-39
2022/10/17 07:16:08;;;;;;;1.30;0.97;;;22.60;99.90;;;;;;5044781;28;20485;-40
2022/10/17 07:18:35;;;;;;;1.47;1.10;;;22.60;99.90;;;;;;5045143;28;20539;-40
2022/10/17 07:21:04;;;;;;;1.80;0.93;;;22.60;99.90;;;;;;5035270;28;20463;-40
2022/10/17 07:23:31;;;;;;;1.83;1.00;;;22.60;99.90;;;;;;5037248;28;20458;-40
2022/10/17 07:26:00;;;;;;;1.10;0.90;;;22.60;99.90;;;;;;5045316;28;20461;-40
2022/10/17 07:28:27;;;;;;;1.27;1.13;;;22.70;99.90;;;;;;5035478;28;20454;-40
2022/10/17 07:30:54;;;;;;;1.70;1.20;;;22.70;99.90;;;;;;5041595;28;20576;-39
2022/10/17 07:33:20;;;;;;;2.67;1.03;;;22.70;99.90;;;;;;5044902;28;20573;-40
2022/10/17 07:35:47;;;;;;;1.30;1.10;;;22.80;99.90;;;;;;5037642;28;20466;-39
2022/10/17 07:38:15;;;;;;;1.10;1.00;;;22.80;99.90;;;;;;5041923;28;20454;-40
2022/10/17 07:40:42;;;;;;;1.13;1.03;;;22.80;99.90;;;;;;5041418;28;20465;-38
2022/10/17 07:43:08;;;;;;;1.20;1.00;;;22.80;99.90;;;;;;5041090;28;20507;-38
2022/10/17 07:45:35;;;;;;;2.03;1.10;;;22.90;99.90;;;;;;5032210;28;20520;-39
2022/10/17 07:48:02;;;;;;;1.40;1.10;;;23.00;99.90;;;;;;5037951;28;20458;-39
2022/10/17 07:50:30;;;;;;;1.60;1.10;;;22.90;99.90;;;;;;5040918;28;21006;-41
2022/10/17 07:52:57;;;;;;;1.10;0.80;;;23.00;99.90;;;;;;5033950;28;20861;-40
2022/10/17 07:55:25;;;;;;;1.50;1.13;;;23.10;99.90;;;;;;5041341;28;20461;-40
2022/10/17 07:57:51;;;;;;;1.23;1.13;;;23.10;99.90;;;;;;5044144;28;20466;-40
2022/10/17 08:00:18;;;;;;;1.20;1.10;;;23.10;99.90;;;;;;5039654;28;20799;-40
2022/10/17 08:02:45;;;;;;;1.30;1.00;;;23.10;99.90;;;;;;5034174;28;20888;-40
2022/10/17 08:05:12;;;;;;;1.53;1.10;;;23.10;99.90;;;;;;5036874;28;20457;-39
2022/10/17 08:07:39;;;;;;;1.17;0.80;;;23.20;99.90;;;;;;5038695;28;20461;-39
2022/10/17 08:10:06;;;;;;;1.67;1.07;;;23.20;99.90;;;;;;5041745;28;20562;-39
2022/10/17 08:12:35;;;;;;;2.50;1.20;;;23.30;99.90;;;;;;5033680;28;20484;-38
2022/10/17 08:15:02;;;;;;;1.10;0.97;;;23.30;99.90;;;;;;5038097;28;20458;-40
2022/10/17 08:17:28;;;;;;;1.57;0.90;;;23.30;99.90;;;;;;5032882;28;20576;-38
2022/10/17 08:19:55;;;;;;;1.00;0.80;;;23.30;99.90;;;;;;5037004;28;20470;-39
2022/10/17 08:22:22;;;;;;;1.70;1.10;;;23.20;99.90;;;;;;5038369;28;20461;-40
2022/10/17 08:24:48;;;;;;;6.60;2.00;;;23.20;99.90;;;;;;5040724;28;22295;-39
2022/10/17 08:27:20;;;;;;;2.47;1.50;;;23.20;99.90;;;;;;5037634;28;20461;-42
2022/10/17 08:29:51;;;;;;;4.77;1.70;;;23.20;99.90;;;;;;5043929;28;20508;-40
2022/10/17 08:32:18;;;;;;;3.00;2.10;;;23.20;99.90;;;;;;5036150;28;20466;-40
2022/10/17 08:34:45;;;;;;;6.37;2.23;;;23.20;99.90;;;;;;5042177;28;20465;-40
2022/10/17 08:37:12;;;;;;;2.27;1.90;;;23.20;99.90;;;;;;5037700;28;20941;-39
2022/10/17 08:39:39;;;;;;;5.30;1.80;;;23.30;99.90;;;;;;5046926;28;20466;-39
2022/10/17 08:42:26;;;;;;;2.03;1.70;;;23.30;99.90;;;;;;5040492;28;20466;-39
2022/10/17 08:44:59;;;;;;;2.17;1.40;;;23.40;99.90;;;;;;5035247;28;20462;-40
2022/10/17 08:47:29;;;;;;;2.00;1.83;;;23.40;99.90;;;;;;5037824;28;20458;-40
2022/10/17 08:49:58;;;;;;;2.83;1.67;;;23.40;99.90;;;;;;5033534;28;20925;-40
2022/10/17 08:52:33;;;;;;;4.03;1.87;;;23.40;99.90;;;;;;5037193;28;20482;-40
2022/10/17 08:54:59;;;;;;;3.63;2.00;;;23.50;99.90;;;;;;5040224;28;20469;-40
2022/10/17 08:57:27;;;;;;;6.73;2.40;;;23.50;99.90;;;;;;5045681;28;20952;-41
2022/10/17 08:59:55;;;;;;;3.00;2.20;;;23.60;99.90;;;;;;5043215;28;20468;-40
2022/10/17 09:02:42;;;;;;;3.23;1.90;;;23.60;99.90;;;;;;5035617;28;21125;-40
2022/10/17 09:05:39;;;;;;;2.60;2.13;;;23.60;99.90;;;;;;5036235;28;20485;-40
2022/10/17 09:08:16;;;;;;;2.60;2.03;;;23.60;99.90;;;;;;5034599;28;21162;-40
2022/10/17 09:10:54;;;;;;;6.83;2.30;;;23.60;99.90;;;;;;5041367;28;20458;-40
2022/10/17 09:13:30;;;;;;;2.37;1.73;;;23.60;99.90;;;;;;5034545;28;20983;-40
2022/10/17 09:16:08;;;;;;;2.37;1.83;;;23.60;99.90;;;;;;5034789;28;20978;-40
2022/10/17 09:18:38;;;;;;;2.27;1.67;;;23.60;99.90;;;;;;5039179;28;20900;-40
2022/10/17 09:21:17;;;;;;;1.97;1.70;;;23.70;99.90;;;;;;5031245;28;20540;-39
2022/10/17 09:23:47;;;;;;;5.30;2.40;;;23.60;99.90;;;;;;5034308;28;20462;-40
2022/10/17 09:26:15;;;;;;;2.07;1.87;;;23.60;99.90;;;;;;5035779;28;20439;-40
2022/10/17 09:28:43;;;;;;;2.50;1.50;;;23.60;99.90;;;;;;5030779;28;21094;-40
2022/10/17 09:31:19;;;;;;;6.53;1.77;;;23.60;99.90;;;;;;5035490;28;20818;-40
2022/10/17 09:33:47;;;;;;;2.00;1.70;;;23.70;99.90;;;;;;5037618;28;20951;-40
2022/10/17 09:36:17;;;;;;;1.70;1.53;;;23.70;99.90;;;;;;5039133;28;20457;-40
2022/10/17 09:38:47;;;;;;;3.53;1.77;;;23.70;99.90;;;;;;5033510;28;20824;-40
2022/10/17 09:41:19;;;;;;;3.03;1.73;;;23.70;99.90;;;;;;5044340;28;20828;-40
2022/10/17 09:43:46;;;;;;;2.20;1.90;;;23.70;99.90;;;;;;5036064;28;20457;-40
2022/10/17 09:46:20;;;;;;;2.23;1.73;;;23.80;99.90;;;;;;5041131;28;20953;-40
2022/10/17 09:48:51;;;;;;;1.97;1.70;;;23.80;99.90;;;;;;5043623;28;20453;-39
2022/10/17 09:51:19;;;;;;;2.30;1.83;;;23.80;99.90;;;;;;5040243;28;20961;-39
2022/10/17 09:53:49;;;;;;;2.10;1.90;;;23.70;99.90;;;;;;5038785;28;20450;-39
2022/10/17 09:56:18;;;;;;;2.33;1.47;;;23.70;99.90;;;;;;5040474;28;20455;-39
2022/10/17 09:58:47;;;;;;;2.07;1.50;;;23.70;99.90;;;;;;5041117;28;20624;-40
2022/10/17 10:01:21;;;;;;;2.17;1.97;;;23.70;99.90;;;;;;5041510;28;20458;-40
2022/10/17 10:03:49;;;;;;;2.90;1.50;;;23.70;99.90;;;;;;5035739;28;20446;-40
2022/10/17 10:06:18;;;;;;;1.70;1.60;;;23.80;99.90;;;;;;5032680;28;20465;-38
2022/10/17 10:08:52;;;;;;;1.83;1.43;;;23.80;99.90;;;;;;5038252;28;20480;-40
2022/10/17 10:11:24;;;;;;;2.03;1.67;;;23.80;99.90;;;;;;5038955;28;20464;-40
2022/10/17 10:13:51;;;;;;;4.37;2.20;;;23.70;99.90;;;;;;5038087;28;20791;-40
2022/10/17 10:16:29;;;;;;;2.77;2.00;;;23.70;99.90;;;;;;5034132;28;20489;-41
2022/10/17 10:18:56;;;;;;;4.05;2.10;;;23.70;99.90;;;;;;5033588;28;20457;-45
2022/10/17 10:21:25;;;;;;;5.10;2.60;;;23.70;99.90;;;;;;5036310;28;20200;-46
2022/10/17 10:24:10;;;;;;;3.57;1.93;;;23.70;99.90;;;;;;5036282;28;20460;-46
2022/10/17 10:26:40;;;;;;;4.17;2.30;;;23.80;99.90;;;;;;5030926;28;20450;-45
2022/10/17 10:29:23;;;;;;;2.90;1.83;;;23.80;99.90;;;;;;5042552;28;20461;-46
2022/10/17 10:31:51;;;;;;;5.57;1.90;;;23.80;99.90;;;;;;5036913;28;20476;-44
2022/10/17 10:34:22;;;;;;;4.57;1.77;;;23.80;99.90;;;;;;5039190;28;20469;-45
2022/10/17 10:36:55;;;;;;;3.43;2.00;;;23.80;99.90;;;;;;5037719;28;20798;-45
2022/10/17 10:39:41;;;;;;;3.87;2.03;;;23.80;99.90;;;;;;5037876;28;20454;-44
2022/10/17 10:42:22;;;;;;;2.57;2.03;;;23.80;99.90;;;;;;5037959;28;20478;-46
2022/10/17 10:44:50;;;;;;;3.53;1.90;;;23.90;99.90;;;;;;5035149;28;20465;-47
2022/10/17 10:47:27;;;;;;;2.10;1.63;;;23.90;99.90;;;;;;5041842;28;20508;-47
2022/10/17 10:50:15;;;;;;;6.10;1.97;;;23.90;99.90;;;;;;5036498;28;20466;-44
2022/10/17 10:52:46;;;;;;;4.60;1.90;;;23.90;99.90;;;;;;5039473;28;20881;-44
2022/10/17 10:55:23;;;;;;;2.30;1.63;;;23.90;99.90;;;;;;5035859;28;20465;-45
2022/10/17 10:57:53;;;;;;;3.73;2.23;;;23.90;99.90;;;;;;5045071;28;20805;-44
2022/10/17 11:00:24;;;;;;;1.97;1.87;;;24.00;99.90;;;;;;5043921;28;20462;-44
2022/10/17 11:02:59;;;;;;;3.17;2.20;;;23.90;99.90;;;;;;5047222;28;20457;-45
2022/10/17 11:05:37;;;;;;;3.10;2.10;;;24.00;99.90;;;;;;5043727;28;20442;-45
2022/10/17 11:08:12;;;;;;;2.80;1.90;;;24.00;99.90;;;;;;5035218;28;20450;-45
2022/10/17 11:11:01;;;;;;;5.97;2.03;;;24.00;99.90;;;;;;5040252;28;20465;-46
2022/10/17 11:13:36;;;;;;;2.53;1.60;;;24.00;99.90;;;;;;5051848;28;20469;-45
2022/10/17 11:16:15;;;;;;;2.30;1.87;;;24.00;99.90;;;;;;5049359;28;20456;-43
2022/10/17 11:18:47;;;;;;;2.13;1.60;;;24.00;99.90;;;;;;5040629;28;20458;-43
2022/10/17 11:21:17;;;;;;;4.27;1.67;;;24.00;99.90;;;;;;5036235;28;20920;-45
2022/10/17 11:23:47;;;;;;;1.70;1.50;;;24.00;99.90;;;;;;5045776;28;20481;-43
2022/10/17 11:26:24;;;;;;;2.17;1.60;;;24.00;99.90;;;;;;5044251;28;20856;-43
2022/10/17 11:28:51;;;;;;;2.17;1.50;;;24.00;99.90;;;;;;5045358;28;20441;-44
2022/10/17 11:31:19;;;;;;;1.90;1.80;;;24.00;99.90;;;;;;5038916;28;20470;-44
2022/10/17 11:33:51;;;;;;;4.00;2.03;;;24.00;99.90;;;;;;5042337;28;20489;-42
2022/10/17 11:36:21;;;;;;;3.03;2.00;;;24.00;99.90;;;;;;5042547;28;20450;-44
2022/10/17 11:38:52;;;;;;;4.27;2.30;;;24.00;99.90;;;;;;5042209;28;20500;-45
2022/10/17 11:41:23;;;;;;;3.90;1.60;;;24.00;99.90;;;;;;5038286;28;20559;-45
2022/10/17 11:43:54;;;;;;;2.33;1.60;;;24.00;99.90;;;;;;5048926;28;20453;-45
2022/10/17 11:46:23;;;;;;;1.93;1.83;;;24.00;99.90;;;;;;5037240;28;20523;-47
2022/10/17 11:49:02;;;;;;;4.57;2.50;;;24.00;99.90;;;;;;5037310;28;21039;-45
2022/10/17 11:51:31;;;;;;;2.73;2.13;;;24.00;99.90;;;;;;5041861;28;20465;-44
2022/10/17 11:54:06;;;;;;;2.30;2.00;;;24.00;99.90;;;;;;5044348;28;20487;-45
2022/10/17 11:56:38;;;;;;;3.63;1.60;;;24.00;99.90;;;;;;5041976;28;20465;-44
2022/10/17 11:59:37;;;;;;;3.33;1.20;;;24.00;99.90;;;;;;5043510;28;20824;-46
2022/10/17 12:02:09;;;;;;;1.73;1.63;;;24.00;99.90;;;;;;5023480;28;20457;-48
2022/10/17 12:04:51;;;;;;;3.50;1.43;;;24.00;99.90;;;;;;5034775;28;20457;-45
2022/10/17 12:07:29;;;;;;;4.50;1.97;;;24.00;99.90;;;;;;5047153;28;20469;-43
2022/10/17 12:10:03;;;;;;;2.20;1.50;;;24.00;99.90;;;;;;5037514;28;20455;-43
2022/10/17 12:12:33;;;;;;;4.70;1.80;;;24.00;99.90;;;;;;5039898;28;20473;-44
2022/10/17 12:15:27;;;;;;;3.17;1.70;;;24.00;99.90;;;;;;5041403;28;20459;-44
2022/10/17 12:17:57;;;;;;;2.77;1.70;;;24.10;99.90;;;;;;5039902;28;20543;-44
2022/10/17 12:20:34;;;;;;;2.10;1.60;;;24.00;99.90;;;;;;5042248;28;20457;-42
2022/10/17 12:23:35;;;;;;;1.77;1.67;;;24.00;99.90;;;;;;5032200;28;20490;-41
2022/10/17 12:26:04;;;;;;;2.60;1.57;;;24.00;99.90;;;;;;5040721;28;20454;-39
2022/10/17 12:28:32;;;;;;;3.43;1.90;;;24.00;99.90;;;;;;5046157;28;20457;-40
2022/10/17 12:31:01;;;;;;;2.37;1.80;;;23.90;99.90;;;;;;5037827;28;20458;-42
2022/10/17 12:33:37;;;;;;;3.20;1.60;;;24.00;99.90;;;;;;5044337;28;20481;-42
2022/10/17 12:36:43;;;;;;;2.10;1.77;;;24.00;99.90;;;;;;5045546;28;20445;-43
2022/10/17 12:39:52;;;;;;;3.97;1.60;;;23.90;99.90;;;;;;5038256;28;20492;-46
2022/10/17 12:42:49;;;;;;;2.60;1.77;;;24.00;99.90;;;;;;5037655;28;20485;-46
2022/10/17 12:45:44;;;;;;;4.37;1.57;;;24.00;99.90;;;;;;5035267;28;20447;-46
2022/10/17 12:48:11;;;;;;;2.90;2.20;;;24.00;99.90;;;;;;5045045;28;20579;-46
2022/10/17 12:51:01;;;;;;;2.70;1.67;;;24.00;99.90;;;;;;5038906;28;20442;-46
2022/10/17 12:53:37;;;;;;;5.63;1.70;;;24.10;99.90;;;;;;5035359;28;20489;-46
2022/10/17 12:56:05;;;;;;;3.20;1.70;;;24.00;99.90;;;;;;5040421;28;20438;-46
2022/10/17 12:58:35;;;;;;;2.93;1.83;;;24.10;99.90;;;;;;5036257;28;20826;-46
2022/10/17 13:01:03;;;;;;;2.80;1.30;;;24.10;99.90;;;;;;5039444;28;20458;-46
2022/10/17 13:03:33;;;;;;;4.53;2.33;;;24.10;99.90;;;;;;5033586;28;20465;-46
2022/10/17 13:06:02;;;;;;;3.10;1.90;;;24.10;99.90;;;;;;5048771;28;20437;-47